• Join FlightAware (Why Join?)
  • Login
  • US Flag 
03:12PM EDT


 

Airport Tracker/Info


-or-


 

Live Flight TrackerFlight Track Log ✈ UPS208 ✈ 25-Apr-2012 ✈ EDDK / CGN - KEWR

Flight Track Log - Related Links

Times and Time Zones

All times are in EDT time to prevent confusion due to time zone crossing. See the UPS208 flight status page for this flight to view local times or setup timezone preferences in your user account.

Time Position Orientation Groundspeed Altitude Reporting Facility
EDT Latitude Longitude Course Direction KTS MPH feet Rate Location/Type
02:09AM 47.4055 -48.8600 245° Southwest  Level FlightAware Approximate
02:10AM 47.3829 -49.0379 243° Southwest  Level FlightAware Approximate
02:11AM 46.9500 -50.2833 262° West 450 518 30,800  Level Gander Center
02:12AM 46.9333 -50.4500 262° West 450 518 32,600 1,560 Climbing Gander Center
02:13AM 46.9167 -50.6333 270° West 450 518 34,000 660 Climbing Gander Center
02:14AM 46.9167 -50.8000 262° West 450 518 34,000  Level Gander Center
02:15AM 46.9000 -50.9833 262° West 440 506 34,000  Level Gander Center
02:16AM 46.8833 -51.1500 262° West 440 506 34,000  Level Gander Center
02:17AM 46.8667 -51.3333 263° West 440 506 34,000  Level Gander Center
02:18AM 46.8500 -51.5333 262° West 440 506 34,000  Level Gander Center
02:19AM 46.8333 -51.7000 262° West 440 506 34,000  Level Gander Center
02:20AM 46.8167 -51.8833 262° West 450 518 34,000  Level Gander Center
02:21AM 46.8000 -52.0500 263° West 450 518 34,000  Level Gander Center
02:22AM 46.7833 -52.2500 262° West 440 506 34,000  Level Gander Center
02:23AM 46.7667 -52.4167 263° West 450 518 34,000  Level Gander Center
02:24AM 46.7500 -52.6000 262° West 450 518 34,000  Level Gander Center
02:25AM 46.7333 -52.7667 263° West 440 506 34,000  Level Gander Center
02:26AM 46.7167 -52.9500 262° West 440 506 34,000  Level Gander Center
02:27AM 46.7000 -53.1167 256° West 440 506 34,000  Level Gander Center
02:28AM 46.6667 -53.3167 270° West 450 518 34,000  Level Gander Center
02:29AM 46.6667 -53.4833 263° West 450 518 34,000  Level Gander Center
02:30AM 46.6500 -53.6667 262° West 450 518 34,000  Level Gander Center
02:31AM 46.6333 -53.8333 256° West 450 518 34,000  Level Gander Center
02:32AM 46.6000 -54.0333 263° West 450 518 34,000  Level Gander Center
02:33AM 46.5833 -54.2167 262° West 450 518 34,000  Level Gander Center
02:34AM 46.5667 -54.3833 254° West 450 518 34,000  Level Gander Center
02:35AM 46.5333 -54.5500 263° West 450 518 34,000  Level Gander Center
02:36AM 46.5167 -54.7333 270° West 450 518 34,000  Level Gander Center
02:37AM 46.5167 -54.9167 255° West 450 518 34,000  Level Gander Center
02:38AM 46.4833 -55.1000 262° West 440 506 34,000  Level Gander Center
02:39AM 46.4667 -55.2667 255° West 440 506 34,000  Level Gander Center
02:40AM 46.4333 -55.4500 262° West 440 506 34,000  Level Gander Center
02:41AM 46.4167 -55.6167 254° West 440 506 34,000  Level Gander Center
02:42AM 46.3833 -55.7833 270° West 440 506 34,000  Level Gander Center
02:43AM 46.3833 -55.9500 255° West 430 495 34,000  Level Gander Center
02:44AM 46.3500 -56.1333 262° West 430 495 34,000  Level Gander Center
02:45AM 46.3333 -56.3000 254° West 450 518 34,000  Level Gander Center
02:46AM 46.3000 -56.4667 270° West 430 495 34,000  Level Gander Center
02:47AM 46.3000 -56.6500 255° West 440 506 34,000  Level Gander Center
02:48AM 46.2667 -56.8333 261° West 440 506 34,000  Level Gander Center
02:49AM 46.2500 -56.9833 257° West 440 506 34,000  Level Gander Center
02:50AM 46.2167 -57.1833 262° West 440 506 34,000  Level Gander Center
02:51AM 46.2000 -57.3500 262° West 440 506 34,000  Level Gander Center
02:52AM 46.1833 -57.5167 255° West 440 506 34,000  Level Gander Center
02:53AM 46.1500 -57.7000 255° West 440 506 34,000  Level Gander Center
02:54AM 46.1167 -57.8833 261° West 440 506 34,000  Level Gander Center
02:55AM 46.1000 -58.0333 254° West 440 506 34,000  Level Gander Center
02:56AM 46.0667 -58.2000 257° West 450 518 34,000  Level Gander Center
02:57AM 46.0333 -58.4000 270° West 450 518 34,000  Level Gander Center
02:58AM 46.0333 -58.5667 257° West 450 518 34,000  Level Gander Center
02:59AM 46.0000 -58.7667 254° West 450 518 34,000  Level Gander Center
03:00AM 45.9667 -58.9333 254° West 450 518 34,000  Level Gander Center
03:01AM 45.9333 -59.1000 262° West 450 518 34,000  Level Gander Center
03:02AM 45.9167 -59.2667 254° West 450 518 34,000  Level Gander Center
03:03AM 45.8833 -59.4333 263° West 450 518 34,000  Level Gander Center
03:04AM 45.8667 -59.6333 254° West 450 518 34,000  Level Gander Center
03:05AM 45.8333 -59.8000 255° West 460 529 34,000  Level Gander Center
03:06AM 45.8000 -59.9833 254° West 460 529 34,000  Level Gander Center
03:07AM 45.7667 -60.1500 257° West 450 518 34,000  Level Gander Center
03:08AM 45.7333 -60.3500 254° West 450 518 34,000  Level Gander Center
03:09AM 45.7000 -60.5167 262° West 450 518 34,000  Level Gander Center
03:10AM 45.6833 -60.6833 254° West 450 518 34,000  Level Gander Center
03:11AM 45.6500 -60.8500 262° West 450 518 34,000  Level Gander Center
03:12AM 45.6333 -61.0167 257° West 450 518 34,000  Level Gander Center
03:13AM 45.6000 -61.2167 254° West 450 518 34,000  Level Gander Center
03:14AM 45.5667 -61.3833 254° West 450 518 34,000  Level Gander Center
03:15AM 45.5333 -61.5500 254° West 450 518 34,000  Level Gander Center
03:16AM 45.5000 -61.7167 262° West 450 518 34,000  Level Gander Center
03:17AM 45.4833 -61.8833 249° West 440 506 34,000  Level Gander Center
03:18AM 45.4333 -62.0667 247° West 440 506 34,000  Level Gander Center
03:19AM 45.3833 -62.2333 254° West 440 506 34,000  Level Gander Center
03:20AM 45.3500 -62.4000 242° Southwest 440 506 34,000  Level Gander Center
03:21AM 45.3000 -62.5333 247° West 440 506 34,000  Level Gander Center
03:22AM 45.2500 -62.7000 247° West 440 506 34,000  Level Gander Center
03:23AM 45.2000 -62.8667 254° West 440 506 34,000  Level Gander Center
03:24AM 45.1667 -63.0333 247° West 440 506 34,000  Level Gander Center
03:25AM 45.1167 -63.2000 235° Southwest 440 506 34,000  Level Gander Center
03:26AM 45.0500 -63.3333 249° West 450 518 34,000  Level Gander Center
03:27AM 45.0000 -63.5167 253° West 450 518 34,000  Level Gander Center
03:28AM 44.9667 -63.6667 249° West 450 518 34,000  Level Gander Center
03:29AM 44.9167 -63.8500 242° Southwest 450 518 34,000  Level Gander Center
03:30AM 44.8667 -63.9833 241° Southwest 450 518 34,000  Level Gander Center
03:31AM 44.8000 -64.1500 247° West 440 506 34,000  Level Gander Center
03:32AM 44.7500 -64.3167 253° West 440 506 34,000  Level Gander Center
03:33AM 44.7167 -64.4667 241° Southwest 440 506 34,000  Level Gander Center
03:34AM 44.6500 -64.6333 242° Southwest 440 506 34,000  Level Gander Center
03:35AM 44.6000 -64.7667 247° West 440 506 34,000  Level Gander Center
03:36AM 44.5500 -64.9333 253° West 440 506 34,000  Level Gander Center
03:37AM 44.5167 -65.0833 238° Southwest 420 483 34,000  Level Gander Center
03:38AM 44.4500 -65.2333 251° West 420 483 34,000  Level Gander Center
03:40AM 44.4000 -65.4333 245° Southwest 410 472 34,000  Level Moncton Center
03:41AM 44.3500 -65.5833 245° Southwest 410 472 34,000  Level Moncton Center
03:42AM 44.3000 -65.7333 242° Southwest 410 472 34,000  Level Moncton Center
03:43AM 44.2500 -65.8667 242° Southwest 410 472 34,000  Level Moncton Center
03:44AM 44.2000 -66.0000 245° Southwest 410 472 34,000  Level Moncton Center
03:45AM 44.1500 -66.1500 245° Southwest 410 472 34,000  Level Moncton Center
03:46AM 44.1000 -66.3000 245° Southwest 410 472 34,000  Level Moncton Center
03:47AM 44.0500 -66.4500 243° Southwest 410 472 34,000  Level Moncton Center
03:48AM 44.0000 -66.5833 243° Southwest 410 472 34,000  Level Moncton Center
03:49AM 43.9500 -66.7167 241° Southwest 420 483 34,000  Level Moncton Center
03:50AM 43.8833 -66.8833 251° West 420 483 34,000  Level Moncton Center
03:51AM 43.8500 -67.0167 250° West 420 483 34,000  Level Moncton Center
03:52AM 43.8072 -67.1769 245° Southwest 424 488 34,000  Level Boston Center
03:53AM 43.7575 -67.3222 247° West 424 488 34,000  Level Boston Center
03:54AM 43.7119 -67.4728 249° West 424 488 34,000  Level Boston Center
03:55AM 43.6686 -67.6286 248° West 424 488 34,000  Level Boston Center
03:56AM 43.6228 -67.7842 249° West 430 495 34,000  Level Boston Center
03:57AM 43.5808 -67.9367 239° Southwest 435 501 34,000  Level Boston Center
03:58AM 43.5167 -68.0833 255° West 440 506 34,000  Level Moncton Center
03:59AM 43.4833 -68.2500 245° Southwest 440 506 34,000  Level Moncton Center
04:00AM 43.4333 -68.4000 243° Southwest 440 506 34,000  Level Moncton Center
04:01AM 43.3833 -68.5333 255° West 440 506 34,000  Level Moncton Center
04:02AM 43.3500 -68.7000 245° Southwest 440 506 34,000  Level Moncton Center
04:03AM 43.3000 -68.8500 245° Southwest 440 506 34,000  Level Moncton Center
04:04AM 43.2500 -69.0000 248° West 440 506 34,000  Level Moncton Center
04:05AM 43.2000 -69.1667 245° Southwest 440 506 34,000  Level Moncton Center
04:06AM 43.1500 -69.3167 255° West 440 506 34,000  Level Moncton Center
04:07AM 43.1183 -69.4761 248° West 440 506 34,000  Level Boston Center
04:08AM 43.0722 -69.6317 247° West 445 512 34,000  Level Boston Center
04:09AM 43.0239 -69.7903 247° West 445 512 34,000  Level Boston Center
04:10AM 42.9756 -69.9483 247° West 445 512 34,000  Level Boston Center
04:11AM 42.9267 -70.1036 246° West 445 512 34,000  Level Boston Center
04:12AM 42.8756 -70.2614 248° West 445 512 34,000  Level Boston Center
04:13AM 42.8325 -70.4072 246° West 450 518 34,000  Level Boston Center
04:14AM 42.7750 -70.5789 246° West 456 525 34,000  Level Boston Center
04:15AM 42.7233 -70.7386 247° West 461 531 34,000  Level Boston Center
04:16AM 42.6733 -70.8953 247° West 461 531 34,000  Level Boston Center
04:17AM 42.6233 -71.0547 246° West 461 531 34,000  Level Boston Center
04:18AM 42.5708 -71.2136 246° West 461 531 34,000  Level Boston Center
04:19AM 42.5183 -71.3697 245° Southwest 461 531 34,000  Level Boston Center
04:20AM 42.4656 -71.5253 245° Southwest 461 531 34,000  Level Boston Center
04:21AM 42.4164 -71.6667 245° Southwest 461 531 34,000  Level Boston Center
04:22AM 42.3653 -71.8164 247° West 461 531 34,000  Level Boston Center
04:23AM 42.3139 -71.9769 245° Southwest 461 531 34,000  Level Boston Center
04:24AM 42.2603 -72.1314 245° Southwest 461 531 34,000 -900 Level Boston Center
04:25AM 42.2106 -72.2775 245° Southwest 454 522 32,300 -1,980 Descending Boston Center
04:26AM 42.1608 -72.4233 245° Southwest 442 509 30,100 -2,100 Descending Boston Center
04:27AM 42.1128 -72.5633 245° Southwest 431 496 28,100 -2,340 Descending Boston Center
04:28AM 42.0603 -72.7114 245° Southwest 419 482 25,500 -2,100 Descending Boston Center
04:29AM 42.0119 -72.8481 245° Southwest 408 470 24,000 -540 Descending Boston Center
04:31AM 41.9126 -73.1299 245° Southwest 459 528 24,000  Level FlightAware ADS-B
04:31AM 41.8833 -73.2124 245° Southwest 459 528 24,000  Level FlightAware ADS-B
04:32AM 41.8546 -73.2946 244° Southwest 459 528 24,000  Level FlightAware ADS-B
04:32AM 41.8187 -73.3949 245° Southwest 460 529 24,000 -720 Level FlightAware ADS-B
04:33AM 41.7722 -73.5256 244° Southwest 457 526 23,000 -1,680 Descending FlightAware ADS-B
04:34AM 41.7321 -73.6370 244° Southwest 457 526 21,400 -3,180 Descending FlightAware ADS-B
04:35AM 41.6878 -73.7574 235° Southwest 421 484 18,000 -3,600 Descending FlightAware ADS-B
04:36AM 41.6372 -73.8539 224° Southwest 394 453 14,700 -3,480 Descending Boston Center
04:37AM 41.5608 -73.9522 222° Southwest 354 407 11,100 -2,340 Descending Boston Center
04:38AM 41.4994 -74.0256 221° Southwest 328 377 10,100 -1,260 Descending Boston Center
04:39AM 41.4442 -74.0906 222° Southwest 280 322 8,600 -900 Descending Boston Center
04:40AM 41.3667 -74.1833 217° Southwest 259 298 8,100 -240 Descending New York TRACON
04:41AM 41.3167 -74.2333 217° Southwest 257 296 8,100 -720 Level New York TRACON
04:42AM 41.2667 -74.2833 156° South 262 302 6,800 -1,320 Descending New York TRACON
04:43AM 41.1833 -74.2333 163° South 279 321 5,400 -1,140 Descending New York TRACON
04:44AM 41.1000 -74.2000 153° Southeast 256 295 4,400 -780 Descending New York TRACON
04:45AM 41.0500 -74.1667 159° South 244 281 3,900 -540 Descending New York TRACON
04:46AM 40.9833 -74.1333 159° South 241 277 3,400 -420 Descending New York TRACON
04:47AM 40.9167 -74.1000 166° South 239 275 3,100 -180 Descending New York TRACON
04:48AM 40.8667 -74.0833 194° South 214 246 3,100 -240 Level New York TRACON
04:49AM 40.8167 -74.1000 194° South 192 221 2,600 -780 Descending New York TRACON
04:50AM 40.7667 -74.1167 207° Southwest 166 191 1,500 -960 Descending New York TRACON
04:51AM 40.7167 -74.1500 207° Southwest 150 173 700 -840 Descending New York TRACON